sensor_id;sensor_type;location;lat;lon;timestamp;pressure;altitude;pressure_sealevel;temperature;humidity
69214;BME280;56325;47.030;18.518;2023-01-25T00:00:53;102046.84;;;2.11;89.53
69214;BME280;56325;47.030;18.518;2023-01-25T00:03:28;102048.97;;;2.02;89.76
69214;BME280;56325;47.030;18.518;2023-01-25T00:06:04;102049.75;;;2.02;91.10
69214;BME280;56325;47.030;18.518;2023-01-25T00:08:39;102044.69;;;2.01;89.59
69214;BME280;56325;47.030;18.518;2023-01-25T00:11:13;102054.22;;;1.75;91.57
69214;BME280;56325;47.030;18.518;2023-01-25T00:13:52;102050.81;;;1.97;90.50
69214;BME280;56325;47.030;18.518;2023-01-25T00:16:26;102055.25;;;2.06;90.57
69214;BME280;56325;47.030;18.518;2023-01-25T00:19:01;102060.06;;;1.77;92.58
69214;BME280;56325;47.030;18.518;2023-01-25T00:21:37;102062.47;;;1.98;91.52
69214;BME280;56325;47.030;18.518;2023-01-25T00:24:12;102042.34;;;1.99;91.12
69214;BME280;56325;47.030;18.518;2023-01-25T00:26:46;102049.75;;;2.02;91.97
69214;BME280;56325;47.030;18.518;2023-01-25T00:29:22;102043.41;;;1.94;92.17
69214;BME280;56325;47.030;18.518;2023-01-25T00:32:07;102048.91;;;1.98;91.99
69214;BME280;56325;47.030;18.518;2023-01-25T00:35:02;102050.13;;;2.20;90.99
69214;BME280;56325;47.030;18.518;2023-01-25T00:37:41;102045.34;;;2.13;90.30
69214;BME280;56325;47.030;18.518;2023-01-25T00:40:17;102046.56;;;2.16;90.55
69214;BME280;56325;47.030;18.518;2023-01-25T00:42:51;102047.41;;;2.01;90.40
69214;BME280;56325;47.030;18.518;2023-01-25T00:45:26;102051.69;;;2.02;92.26
69214;BME280;56325;47.030;18.518;2023-01-25T00:48:00;102049.69;;;1.98;92.49
69214;BME280;56325;47.030;18.518;2023-01-25T00:50:36;102052.19;;;2.07;91.74
69214;BME280;56325;47.030;18.518;2023-01-25T00:53:12;102057.06;;;2.17;91.82
69214;BME280;56325;47.030;18.518;2023-01-25T00:55:50;102059.69;;;2.33;90.06
69214;BME280;56325;47.030;18.518;2023-01-25T00:58:25;102062.06;;;2.35;89.20
69214;BME280;56325;47.030;18.518;2023-01-25T01:01:00;102060.06;;;2.32;91.22
69214;BME280;56325;47.030;18.518;2023-01-25T01:03:34;102057.84;;;2.37;89.01
69214;BME280;56325;47.030;18.518;2023-01-25T01:06:10;102061.06;;;2.23;89.74
69214;BME280;56325;47.030;18.518;2023-01-25T01:08:46;102064.13;;;2.22;90.23
69214;BME280;56325;47.030;18.518;2023-01-25T01:11:21;102062.91;;;2.19;88.68
69214;BME280;56325;47.030;18.518;2023-01-25T01:13:55;102059.84;;;2.02;90.22
69214;BME280;56325;47.030;18.518;2023-01-25T01:16:31;102062.78;;;2.12;92.02
69214;BME280;56325;47.030;18.518;2023-01-25T01:19:05;102063.78;;;2.23;89.39
69214;BME280;56325;47.030;18.518;2023-01-25T01:21:40;102062.84;;;2.16;90.08
69214;BME280;56325;47.030;18.518;2023-01-25T01:24:15;102059.63;;;2.29;90.51
69214;BME280;56325;47.030;18.518;2023-01-25T01:26:52;102060.19;;;2.39;90.76
69214;BME280;56325;47.030;18.518;2023-01-25T01:29:26;102057.13;;;2.59;89.16
69214;BME280;56325;47.030;18.518;2023-01-25T01:32:01;102058.84;;;2.48;90.39
69214;BME280;56325;47.030;18.518;2023-01-25T01:34:35;102057.94;;;2.63;88.44
69214;BME280;56325;47.030;18.518;2023-01-25T01:37:10;102060.56;;;2.56;88.84
69214;BME280;56325;47.030;18.518;2023-01-25T01:39:47;102059.91;;;2.44;90.40
69214;BME280;56325;47.030;18.518;2023-01-25T01:42:22;102054.63;;;2.51;90.74
69214;BME280;56325;47.030;18.518;2023-01-25T01:44:56;102048.06;;;2.75;89.48
69214;BME280;56325;47.030;18.518;2023-01-25T01:47:37;102053.06;;;2.73;88.81
69214;BME280;56325;47.030;18.518;2023-01-25T01:50:20;102057.69;;;2.49;89.94
69214;BME280;56325;47.030;18.518;2023-01-25T01:52:57;102060.69;;;2.44;90.07
69214;BME280;56325;47.030;18.518;2023-01-25T01:55:33;102056.25;;;2.55;89.96
69214;BME280;56325;47.030;18.518;2023-01-25T01:58:08;102049.06;;;2.44;91.47
69214;BME280;56325;47.030;18.518;2023-01-25T02:00:43;102058.56;;;2.53;90.59
69214;BME280;56325;47.030;18.518;2023-01-25T02:03:18;102051.25;;;2.57;89.30
69214;BME280;56325;47.030;18.518;2023-01-25T02:05:57;102053.41;;;2.48;89.94
69214;BME280;56325;47.030;18.518;2023-01-25T02:08:36;102048.84;;;2.33;90.37
69214;BME280;56325;47.030;18.518;2023-01-25T02:11:15;102055.06;;;2.53;90.11
69214;BME280;56325;47.030;18.518;2023-01-25T02:13:50;102041.91;;;2.36;90.98
69214;BME280;56325;47.030;18.518;2023-01-25T02:16:26;102041.13;;;2.35;90.47
69214;BME280;56325;47.030;18.518;2023-01-25T02:19:02;102047.06;;;2.41;90.37
69214;BME280;56325;47.030;18.518;2023-01-25T02:21:39;102031.25;;;2.46;89.92
69214;BME280;56325;47.030;18.518;2023-01-25T02:24:21;102036.19;;;2.41;90.64
69214;BME280;56325;47.030;18.518;2023-01-25T02:26:58;102041.78;;;2.28;90.85
69214;BME280;56325;47.030;18.518;2023-01-25T02:29:33;102041.25;;;2.42;91.55
69214;BME280;56325;47.030;18.518;2023-01-25T02:32:08;102039.19;;;2.55;90.75
69214;BME280;56325;47.030;18.518;2023-01-25T02:34:43;102032.84;;;2.47;90.34
69214;BME280;56325;47.030;18.518;2023-01-25T02:37:17;102029.69;;;2.45;90.57
69214;BME280;56325;47.030;18.518;2023-01-25T02:39:52;102032.69;;;2.40;91.53
69214;BME280;56325;47.030;18.518;2023-01-25T02:42:30;102022.16;;;2.58;91.01
69214;BME280;56325;47.030;18.518;2023-01-25T02:45:09;102028.50;;;2.66;89.73
69214;BME280;56325;47.030;18.518;2023-01-25T02:47:46;102025.41;;;2.44;89.79
69214;BME280;56325;47.030;18.518;2023-01-25T02:50:23;102027.00;;;2.26;90.85
69214;BME280;56325;47.030;18.518;2023-01-25T02:52:57;102016.63;;;2.32;91.02
69214;BME280;56325;47.030;18.518;2023-01-25T02:55:32;102017.69;;;2.27;91.06
69214;BME280;56325;47.030;18.518;2023-01-25T02:58:08;102004.50;;;2.25;91.51
69214;BME280;56325;47.030;18.518;2023-01-25T03:00:43;102008.56;;;2.35;91.11
69214;BME280;56325;47.030;18.518;2023-01-25T03:03:18;101994.69;;;2.40;91.30
69214;BME280;56325;47.030;18.518;2023-01-25T03:05:53;101994.62;;;2.37;91.63
69214;BME280;56325;47.030;18.518;2023-01-25T03:08:27;101989.53;;;2.54;91.23
69214;BME280;56325;47.030;18.518;2023-01-25T03:11:05;101988.72;;;2.54;90.75
69214;BME280;56325;47.030;18.518;2023-01-25T03:13:42;101986.09;;;2.57;90.73
69214;BME280;56325;47.030;18.518;2023-01-25T03:16:17;101991.19;;;2.62;90.37
69214;BME280;56325;47.030;18.518;2023-01-25T03:18:52;101989.44;;;2.74;89.99
69214;BME280;56325;47.030;18.518;2023-01-25T03:21:27;101993.09;;;2.58;89.81
69214;BME280;56325;47.030;18.518;2023-01-25T03:24:02;101992.44;;;2.69;89.75
69214;BME280;56325;47.030;18.518;2023-01-25T03:26:38;101993.53;;;2.64;88.89
69214;BME280;56325;47.030;18.518;2023-01-25T03:29:28;101977.66;;;2.66;88.53
69214;BME280;56325;47.030;18.518;2023-01-25T03:32:02;101988.03;;;2.60;88.88
69214;BME280;56325;47.030;18.518;2023-01-25T03:34:40;101990.81;;;2.64;88.44
69214;BME280;56325;47.030;18.518;2023-01-25T03:37:14;101984.09;;;2.54;87.24
69214;BME280;56325;47.030;18.518;2023-01-25T03:39:53;101993.56;;;2.22;90.15
69214;BME280;56325;47.030;18.518;2023-01-25T03:42:27;101994.25;;;2.38;90.10
69214;BME280;56325;47.030;18.518;2023-01-25T03:45:04;102003.13;;;2.35;89.26
69214;BME280;56325;47.030;18.518;2023-01-25T03:47:39;101997.50;;;2.24;89.76
69214;BME280;56325;47.030;18.518;2023-01-25T03:50:14;101996.69;;;2.24;88.92
69214;BME280;56325;47.030;18.518;2023-01-25T03:52:49;101995.78;;;2.16;88.35
69214;BME280;56325;47.030;18.518;2023-01-25T03:55:32;101998.78;;;2.11;88.48
69214;BME280;56325;47.030;18.518;2023-01-25T03:58:07;101985.41;;;1.83;90.15
69214;BME280;56325;47.030;18.518;2023-01-25T04:00:44;101988.44;;;1.97;91.17
69214;BME280;56325;47.030;18.518;2023-01-25T04:03:19;101986.63;;;2.24;89.16
69214;BME280;56325;47.030;18.518;2023-01-25T04:05:54;101990.00;;;1.98;88.91
69214;BME280;56325;47.030;18.518;2023-01-25T04:08:29;101989.44;;;1.70;90.71
69214;BME280;56325;47.030;18.518;2023-01-25T04:11:06;101989.19;;;1.79;91.82
69214;BME280;56325;47.030;18.518;2023-01-25T04:13:41;101994.56;;;1.94;91.57
69214;BME280;56325;47.030;18.518;2023-01-25T04:16:17;101996.34;;;2.06;91.46
69214;BME280;56325;47.030;18.518;2023-01-25T04:18:53;101991.22;;;2.20;90.86
69214;BME280;56325;47.030;18.518;2023-01-25T04:21:27;101996.22;;;2.18;90.35
69214;BME280;56325;47.030;18.518;2023-01-25T04:24:02;101993.13;;;2.20;88.10
69214;BME280;56325;47.030;18.518;2023-01-25T04:26:38;101995.72;;;1.93;89.91
69214;BME280;56325;47.030;18.518;2023-01-25T04:29:13;101995.84;;;2.01;90.89
69214;BME280;56325;47.030;18.518;2023-01-25T04:31:49;101995.13;;;2.04;91.12
69214;BME280;56325;47.030;18.518;2023-01-25T04:34:24;101999.72;;;2.19;89.75
69214;BME280;56325;47.030;18.518;2023-01-25T04:36:58;102002.19;;;2.27;89.85
69214;BME280;56325;47.030;18.518;2023-01-25T04:39:34;102004.41;;;2.22;88.80
69214;BME280;56325;47.030;18.518;2023-01-25T04:42:08;102008.72;;;2.04;89.64
69214;BME280;56325;47.030;18.518;2023-01-25T04:44:43;102006.22;;;1.95;92.09
69214;BME280;56325;47.030;18.518;2023-01-25T04:47:19;101997.22;;;2.10;90.63
69214;BME280;56325;47.030;18.518;2023-01-25T04:49:54;101979.13;;;4.70;100.00
69214;BME280;56325;47.030;18.518;2023-01-25T04:52:29;101977.22;;;7.72;100.00
69214;BME280;56325;47.030;18.518;2023-01-25T04:55:04;101989.25;;;5.17;100.00
69214;BME280;56325;47.030;18.518;2023-01-25T04:57:41;102004.56;;;4.07;100.00
69214;BME280;56325;47.030;18.518;2023-01-25T05:00:17;102001.75;;;3.40;100.00
69214;BME280;56325;47.030;18.518;2023-01-25T05:02:54;102007.62;;;2.92;99.67
69214;BME280;56325;47.030;18.518;2023-01-25T05:05:29;102012.63;;;2.68;98.98
69214;BME280;56325;47.030;18.518;2023-01-25T05:08:04;102012.25;;;2.69;97.57
69214;BME280;56325;47.030;18.518;2023-01-25T05:10:40;102017.31;;;2.71;95.47
69214;BME280;56325;47.030;18.518;2023-01-25T05:13:17;102023.97;;;2.50;93.08
69214;BME280;56325;47.030;18.518;2023-01-25T05:15:54;102030.03;;;2.44;92.88
69214;BME280;56325;47.030;18.518;2023-01-25T05:18:31;102025.34;;;2.21;93.59
69214;BME280;56325;47.030;18.518;2023-01-25T05:21:20;102027.63;;;2.39;94.15
69214;BME280;56325;47.030;18.518;2023-01-25T05:24:15;102026.69;;;2.50;92.92
69214;BME280;56325;47.030;18.518;2023-01-25T05:26:50;102023.56;;;2.29;91.67
69214;BME280;56325;47.030;18.518;2023-01-25T05:29:34;102019.28;;;2.28;92.08
69214;BME280;56325;47.030;18.518;2023-01-25T05:32:11;102012.84;;;2.36;92.51
69214;BME280;56325;47.030;18.518;2023-01-25T05:34:47;102018.56;;;2.31;93.28
69214;BME280;56325;47.030;18.518;2023-01-25T05:37:22;102013.53;;;2.52;91.30
69214;BME280;56325;47.030;18.518;2023-01-25T05:39:57;102015.47;;;2.33;92.36
69214;BME280;56325;47.030;18.518;2023-01-25T05:42:33;101994.09;;;6.35;100.00
69214;BME280;56325;47.030;18.518;2023-01-25T05:45:09;101997.94;;;6.09;100.00
69214;BME280;56325;47.030;18.518;2023-01-25T05:47:44;101984.59;;;7.85;100.00
69214;BME280;56325;47.030;18.518;2023-01-25T05:50:22;101992.13;;;7.56;100.00
69214;BME280;56325;47.030;18.518;2023-01-25T05:52:58;102005.56;;;5.75;100.00
69214;BME280;56325;47.030;18.518;2023-01-25T05:55:34;102009.63;;;4.82;100.00
69214;BME280;56325;47.030;18.518;2023-01-25T05:58:09;102019.59;;;4.27;98.38
69214;BME280;56325;47.030;18.518;2023-01-25T06:00:43;102016.19;;;3.74;95.73
69214;BME280;56325;47.030;18.518;2023-01-25T06:03:19;102021.91;;;3.65;95.09
69214;BME280;56325;47.030;18.518;2023-01-25T06:05:56;102022.38;;;3.18;93.84
69214;BME280;56325;47.030;18.518;2023-01-25T06:08:31;102017.50;;;3.04;93.62
69214;BME280;56325;47.030;18.518;2023-01-25T06:11:06;102030.44;;;2.88;91.76
69214;BME280;56325;47.030;18.518;2023-01-25T06:13:42;102031.19;;;2.66;91.29
69214;BME280;56325;47.030;18.518;2023-01-25T06:16:17;102023.84;;;2.66;92.97
69214;BME280;56325;47.030;18.518;2023-01-25T06:18:55;102025.41;;;2.67;92.61
69214;BME280;56325;47.030;18.518;2023-01-25T06:21:32;102015.03;;;4.79;100.00
69214;BME280;56325;47.030;18.518;2023-01-25T06:24:09;102007.69;;;8.65;100.00
69214;BME280;56325;47.030;18.518;2023-01-25T06:26:43;102013.88;;;7.96;100.00
69214;BME280;56325;47.030;18.518;2023-01-25T06:29:18;102020.47;;;5.88;98.76
69214;BME280;56325;47.030;18.518;2023-01-25T06:31:55;102035.66;;;4.39;93.43
69214;BME280;56325;47.030;18.518;2023-01-25T06:34:30;102034.00;;;3.68;91.98
69214;BME280;56325;47.030;18.518;2023-01-25T06:37:06;102038.59;;;3.11;90.56
69214;BME280;56325;47.030;18.518;2023-01-25T06:39:40;102029.34;;;3.15;92.53
69214;BME280;56325;47.030;18.518;2023-01-25T06:42:15;102039.63;;;3.03;92.33
69214;BME280;56325;47.030;18.518;2023-01-25T06:44:49;102040.69;;;2.98;92.67
69214;BME280;56325;47.030;18.518;2023-01-25T06:47:24;102042.16;;;2.92;92.10
69214;BME280;56325;47.030;18.518;2023-01-25T06:49:59;102043.47;;;2.79;92.24
69214;BME280;56325;47.030;18.518;2023-01-25T06:52:35;102052.75;;;2.78;91.67
69214;BME280;56325;47.030;18.518;2023-01-25T06:55:10;102043.59;;;2.86;92.34
69214;BME280;56325;47.030;18.518;2023-01-25T06:57:46;102046.72;;;2.65;92.34
69214;BME280;56325;47.030;18.518;2023-01-25T07:03:05;102044.50;;;3.16;91.41
69214;BME280;56325;47.030;18.518;2023-01-25T07:05:40;102044.50;;;3.16;91.41
69214;BME280;56325;47.030;18.518;2023-01-25T07:08:15;102046.13;;;2.75;92.39
69214;BME280;56325;47.030;18.518;2023-01-25T07:10:54;102055.53;;;2.58;92.15
69214;BME280;56325;47.030;18.518;2023-01-25T07:13:29;102047.34;;;2.78;91.91
69214;BME280;56325;47.030;18.518;2023-01-25T07:16:06;102044.19;;;2.76;92.07
69214;BME280;56325;47.030;18.518;2023-01-25T07:18:43;102050.94;;;2.62;92.55
69214;BME280;56325;47.030;18.518;2023-01-25T07:21:19;102042.34;;;2.60;92.60
69214;BME280;56325;47.030;18.518;2023-01-25T07:23:59;102045.88;;;2.84;91.49
69214;BME280;56325;47.030;18.518;2023-01-25T07:26:34;102026.41;;;6.05;100.00
69214;BME280;56325;47.030;18.518;2023-01-25T07:29:12;102030.22;;;5.27;100.00
69214;BME280;56325;47.030;18.518;2023-01-25T07:31:48;102030.22;;;4.06;100.00
69214;BME280;56325;47.030;18.518;2023-01-25T07:34:23;102043.75;;;3.42;95.56
69214;BME280;56325;47.030;18.518;2023-01-25T07:36:59;102038.97;;;3.92;100.00
69214;BME280;56325;47.030;18.518;2023-01-25T07:39:34;102023.84;;;6.97;100.00
69214;BME280;56325;47.030;18.518;2023-01-25T07:42:09;102030.22;;;5.27;100.00
69214;BME280;56325;47.030;18.518;2023-01-25T07:44:43;102031.97;;;4.21;94.29
69214;BME280;56325;47.030;18.518;2023-01-25T07:47:18;102041.94;;;3.80;90.96
69214;BME280;56325;47.030;18.518;2023-01-25T07:49:55;102044.53;;;3.43;91.20
69214;BME280;56325;47.030;18.518;2023-01-25T07:52:29;102048.28;;;3.35;91.27
69214;BME280;56325;47.030;18.518;2023-01-25T07:55:04;102038.88;;;3.06;91.65
69214;BME280;56325;47.030;18.518;2023-01-25T07:57:40;102043.72;;;2.93;91.52
69214;BME280;56325;47.030;18.518;2023-01-25T08:00:18;102038.09;;;3.05;92.18
69214;BME280;56325;47.030;18.518;2023-01-25T08:02:52;102034.34;;;3.13;90.20
69214;BME280;56325;47.030;18.518;2023-01-25T08:05:28;102034.59;;;3.05;91.26
69214;BME280;56325;47.030;18.518;2023-01-25T08:08:03;102015.66;;;6.76;100.00
69214;BME280;56325;47.030;18.518;2023-01-25T08:10:38;102021.91;;;5.06;100.00
69214;BME280;56325;47.030;18.518;2023-01-25T08:13:13;102033.63;;;3.99;93.86
69214;BME280;56325;47.030;18.518;2023-01-25T08:15:52;102024.84;;;3.53;93.20
69214;BME280;56325;47.030;18.518;2023-01-25T08:18:27;102034.47;;;3.47;92.37
69214;BME280;56325;47.030;18.518;2023-01-25T08:21:04;102029.84;;;3.51;91.24
69214;BME280;56325;47.030;18.518;2023-01-25T08:23:38;102034.31;;;3.36;91.22
69214;BME280;56325;47.030;18.518;2023-01-25T08:26:13;102036.97;;;3.06;90.90
69214;BME280;56325;47.030;18.518;2023-01-25T08:28:49;102024.56;;;3.09;89.88
69214;BME280;56325;47.030;18.518;2023-01-25T08:31:27;102025.25;;;3.02;91.27
69214;BME280;56325;47.030;18.518;2023-01-25T08:34:03;102036.34;;;3.16;91.45
69214;BME280;56325;47.030;18.518;2023-01-25T08:36:38;102039.31;;;3.08;90.56
69214;BME280;56325;47.030;18.518;2023-01-25T08:39:13;102036.41;;;3.20;91.63
69214;BME280;56325;47.030;18.518;2023-01-25T08:41:49;102037.47;;;3.38;90.13
69214;BME280;56325;47.030;18.518;2023-01-25T08:44:23;102026.44;;;3.27;90.25
69214;BME280;56325;47.030;18.518;2023-01-25T08:46:58;102027.78;;;3.41;90.75
69214;BME280;56325;47.030;18.518;2023-01-25T08:49:32;102034.69;;;3.35;88.70
69214;BME280;56325;47.030;18.518;2023-01-25T08:52:09;102027.38;;;3.39;90.36
69214;BME280;56325;47.030;18.518;2023-01-25T08:54:47;102031.13;;;3.57;89.76
69214;BME280;56325;47.030;18.518;2023-01-25T08:57:21;102034.72;;;3.65;87.91
69214;BME280;56325;47.030;18.518;2023-01-25T08:59:56;102008.66;;;8.30;100.00
69214;BME280;56325;47.030;18.518;2023-01-25T09:02:31;102006.06;;;9.57;100.00
69214;BME280;56325;47.030;18.518;2023-01-25T09:05:06;102012.84;;;7.68;100.00
69214;BME280;56325;47.030;18.518;2023-01-25T09:07:42;102021.44;;;6.35;99.79
69214;BME280;56325;47.030;18.518;2023-01-25T09:10:17;102018.69;;;5.52;94.78
69214;BME280;56325;47.030;18.518;2023-01-25T09:12:53;102030.84;;;4.62;89.43
69214;BME280;56325;47.030;18.518;2023-01-25T09:15:27;102032.88;;;4.32;88.42
69214;BME280;56325;47.030;18.518;2023-01-25T09:18:02;102019.38;;;4.09;90.20
69214;BME280;56325;47.030;18.518;2023-01-25T09:20:37;102021.97;;;3.99;89.70
69214;BME280;56325;47.030;18.518;2023-01-25T09:23:13;102013.28;;;4.19;89.97
69214;BME280;56325;47.030;18.518;2023-01-25T09:25:48;102009.94;;;4.33;87.91
69214;BME280;56325;47.030;18.518;2023-01-25T09:28:23;102001.09;;;4.10;88.19
69214;BME280;56325;47.030;18.518;2023-01-25T09:31:00;101995.66;;;4.10;88.83
69214;BME280;56325;47.030;18.518;2023-01-25T09:33:55;101999.66;;;4.19;88.56
69214;BME280;56325;47.030;18.518;2023-01-25T09:36:30;101994.34;;;4.34;88.63
69214;BME280;56325;47.030;18.518;2023-01-25T09:39:07;102003.56;;;4.22;87.54
69214;BME280;56325;47.030;18.518;2023-01-25T09:42:04;101999.94;;;4.11;88.55
69214;BME280;56325;47.030;18.518;2023-01-25T09:45:07;101992.75;;;4.29;88.24
69214;BME280;56325;47.030;18.518;2023-01-25T09:47:47;101986.91;;;4.27;88.13
69214;BME280;56325;47.030;18.518;2023-01-25T09:50:32;101983.84;;;4.32;88.17
69214;BME280;56325;47.030;18.518;2023-01-25T09:53:17;101981.50;;;4.31;88.22
69214;BME280;56325;47.030;18.518;2023-01-25T09:55:56;101985.00;;;4.31;87.77
69214;BME280;56325;47.030;18.518;2023-01-25T09:58:34;101978.25;;;4.18;86.74
69214;BME280;56325;47.030;18.518;2023-01-25T10:01:17;101983.53;;;4.04;87.25
69214;BME280;56325;47.030;18.518;2023-01-25T10:04:12;101974.03;;;3.90;89.45
69214;BME280;56325;47.030;18.518;2023-01-25T10:06:51;101975.00;;;4.05;90.14
69214;BME280;56325;47.030;18.518;2023-01-25T10:09:39;101966.66;;;4.24;89.08
69214;BME280;56325;47.030;18.518;2023-01-25T10:12:18;101962.78;;;4.25;88.99
69214;BME280;56325;47.030;18.518;2023-01-25T10:14:54;101960.09;;;4.29;89.11
69214;BME280;56325;47.030;18.518;2023-01-25T10:17:33;101963.62;;;4.33;88.97
69214;BME280;56325;47.030;18.518;2023-01-25T10:20:19;101946.22;;;4.45;88.15
69214;BME280;56325;47.030;18.518;2023-01-25T10:23:13;101946.88;;;4.31;87.22
69214;BME280;56325;47.030;18.518;2023-01-25T10:25:56;101937.56;;;4.32;88.60
69214;BME280;56325;47.030;18.518;2023-01-25T10:28:40;101938.31;;;4.29;88.05
69214;BME280;56325;47.030;18.518;2023-01-25T10:31:17;101925.09;;;4.31;88.48
69214;BME280;56325;47.030;18.518;2023-01-25T10:33:53;101938.25;;;4.25;88.36
69214;BME280;56325;47.030;18.518;2023-01-25T10:36:31;101926.66;;;4.32;88.48
69214;BME280;56325;47.030;18.518;2023-01-25T10:39:06;101906.09;;;8.23;100.00
69214;BME280;56325;47.030;18.518;2023-01-25T10:41:42;101907.84;;;6.59;100.00
69214;BME280;56325;47.030;18.518;2023-01-25T10:44:22;101909.28;;;5.82;98.19
69214;BME280;56325;47.030;18.518;2023-01-25T10:47:00;101905.50;;;5.21;91.07
69214;BME280;56325;47.030;18.518;2023-01-25T10:49:41;101907.41;;;5.10;89.77
69214;BME280;56325;47.030;18.518;2023-01-25T10:52:17;101908.81;;;4.89;88.63
69214;BME280;56325;47.030;18.518;2023-01-25T10:55:07;101908.37;;;4.80;88.49
69214;BME280;56325;47.030;18.518;2023-01-25T10:57:48;101905.13;;;4.64;89.49
69214;BME280;56325;47.030;18.518;2023-01-25T11:00:27;101902.78;;;4.62;88.52
69214;BME280;56325;47.030;18.518;2023-01-25T11:03:05;101897.97;;;4.45;89.05
69214;BME280;56325;47.030;18.518;2023-01-25T11:05:52;101897.81;;;4.27;88.87
69214;BME280;56325;47.030;18.518;2023-01-25T11:08:33;101898.44;;;4.10;89.43
69214;BME280;56325;47.030;18.518;2023-01-25T11:11:30;101893.84;;;4.18;89.39
69214;BME280;56325;47.030;18.518;2023-01-25T11:14:14;101883.00;;;4.21;89.52
69214;BME280;56325;47.030;18.518;2023-01-25T11:16:51;101880.66;;;4.23;89.52
69214;BME280;56325;47.030;18.518;2023-01-25T11:19:30;101878.34;;;4.25;89.57
69214;BME280;56325;47.030;18.518;2023-01-25T11:22:19;101887.66;;;4.21;89.73
69214;BME280;56325;47.030;18.518;2023-01-25T11:24:56;101882.28;;;4.28;89.46
69214;BME280;56325;47.030;18.518;2023-01-25T11:27:30;101870.63;;;4.31;90.05
69214;BME280;56325;47.030;18.518;2023-01-25T11:30:10;101867.22;;;4.45;88.98
69214;BME280;56325;47.030;18.518;2023-01-25T11:32:47;101865.25;;;4.42;88.70
69214;BME280;56325;47.030;18.518;2023-01-25T11:35:26;101867.22;;;4.45;88.70
69214;BME280;56325;47.030;18.518;2023-01-25T11:38:09;101857.41;;;4.33;89.08
69214;BME280;56325;47.030;18.518;2023-01-25T11:40:50;101850.41;;;4.36;89.48
69214;BME280;56325;47.030;18.518;2023-01-25T11:43:42;101847.44;;;4.51;89.00
69214;BME280;56325;47.030;18.518;2023-01-25T11:46:31;101839.75;;;4.68;87.97
69214;BME280;56325;47.030;18.518;2023-01-25T11:49:16;101838.94;;;4.60;88.06
69214;BME280;56325;47.030;18.518;2023-01-25T11:52:02;101833.09;;;4.61;88.32
69214;BME280;56325;47.030;18.518;2023-01-25T11:54:50;101827.69;;;4.69;87.97
69214;BME280;56325;47.030;18.518;2023-01-25T11:57:41;101820.25;;;4.62;88.48
69214;BME280;56325;47.030;18.518;2023-01-25T12:00:34;101817.97;;;4.71;87.70
69214;BME280;56325;47.030;18.518;2023-01-25T12:06:30;101795.41;;;4.71;87.83
69214;BME280;56325;47.030;18.518;2023-01-25T12:09:20;101805.94;;;4.76;88.01
69214;BME280;56325;47.030;18.518;2023-01-25T12:12:08;101792.38;;;4.86;87.19
69214;BME280;56325;47.030;18.518;2023-01-25T12:14:56;101797.00;;;4.79;87.34
69214;BME280;56325;47.030;18.518;2023-01-25T12:17:50;101790.34;;;4.69;88.12
69214;BME280;56325;47.030;18.518;2023-01-25T12:20:41;101780.06;;;5.24;94.09
69214;BME280;56325;47.030;18.518;2023-01-25T12:23:34;101765.00;;;8.80;100.00
69214;BME280;56325;47.030;18.518;2023-01-25T12:26:18;101768.00;;;6.89;100.00
69214;BME280;56325;47.030;18.518;2023-01-25T12:29:01;101770.88;;;6.04;93.80
69214;BME280;56325;47.030;18.518;2023-01-25T12:31:44;101763.81;;;5.67;89.96
69214;BME280;56325;47.030;18.518;2023-01-25T12:34:23;101759.84;;;5.36;88.48
69214;BME280;56325;47.030;18.518;2023-01-25T12:37:07;101760.56;;;5.22;88.18
69214;BME280;56325;47.030;18.518;2023-01-25T12:39:50;101761.31;;;5.02;88.15
69214;BME280;56325;47.030;18.518;2023-01-25T12:42:33;101755.50;;;5.10;87.52
69214;BME280;56325;47.030;18.518;2023-01-25T12:45:14;101748.84;;;5.04;87.14
69214;BME280;56325;47.030;18.518;2023-01-25T12:47:54;101745.75;;;5.06;87.22
69214;BME280;56325;47.030;18.518;2023-01-25T12:50:32;101748.78;;;4.90;86.96
69214;BME280;56325;47.030;18.518;2023-01-25T12:53:14;101751.19;;;5.02;87.07
69214;BME280;56325;47.030;18.518;2023-01-25T12:55:53;101734.78;;;4.95;86.78
69214;BME280;56325;47.030;18.518;2023-01-25T12:58:33;101745.66;;;4.88;87.97
69214;BME280;56325;47.030;18.518;2023-01-25T13:01:16;101729.25;;;4.74;87.79
69214;BME280;56325;47.030;18.518;2023-01-25T13:04:10;101736.31;;;4.89;87.68
69214;BME280;56325;47.030;18.518;2023-01-25T13:06:53;101725.97;;;5.66;96.37
69214;BME280;56325;47.030;18.518;2023-01-25T13:09:36;101720.31;;;8.08;100.00
69214;BME280;56325;47.030;18.518;2023-01-25T13:12:14;101726.28;;;6.67;98.20
69214;BME280;56325;47.030;18.518;2023-01-25T13:14:48;101738.13;;;5.97;91.19
69214;BME280;56325;47.030;18.518;2023-01-25T13:17:28;101732.22;;;5.66;89.02
69214;BME280;56325;47.030;18.518;2023-01-25T13:23:29;101726.34;;;5.43;87.17
69214;BME280;56325;47.030;18.518;2023-01-25T13:26:36;101725.13;;;5.30;87.45
69214;BME280;56325;47.030;18.518;2023-01-25T13:32:57;101724.72;;;5.06;87.07
69214;BME280;56325;47.030;18.518;2023-01-25T13:35:42;101725.44;;;4.96;87.14
69214;BME280;56325;47.030;18.518;2023-01-25T13:38:41;101725.47;;;5.00;87.17
69214;BME280;56325;47.030;18.518;2023-01-25T13:41:16;101723.88;;;4.91;86.84
69214;BME280;56325;47.030;18.518;2023-01-25T13:44:12;101723.84;;;4.84;87.39
69214;BME280;56325;47.030;18.518;2023-01-25T13:46:47;101728.50;;;4.84;87.28
69214;BME280;56325;47.030;18.518;2023-01-25T13:49:31;101726.97;;;4.90;87.69
69214;BME280;56325;47.030;18.518;2023-01-25T13:52:13;101719.97;;;4.92;87.10
69214;BME280;56325;47.030;18.518;2023-01-25T13:54:49;101720.31;;;4.77;86.84
69214;BME280;56325;47.030;18.518;2023-01-25T13:57:28;101704.75;;;4.84;86.78
69214;BME280;56325;47.030;18.518;2023-01-25T14:00:06;101714.44;;;4.71;88.04